sensor_id;sensor_type;location;lat;lon;timestamp;P1;P2;P0
76238;PMS7003;65043;48.392;-4.472;2023-02-01T00:01:47;3.25;2.50;2.00
76238;PMS7003;65043;48.392;-4.472;2023-02-01T00:04:13;7.50;4.00;2.25
76238;PMS7003;65043;48.392;-4.472;2023-02-01T00:06:38;6.75;3.75;2.00
76238;PMS7003;65043;48.392;-4.472;2023-02-01T00:09:03;6.75;3.75;2.00
76238;PMS7003;65043;48.392;-4.472;2023-02-01T00:11:29;5.00;4.50;2.00
76238;PMS7003;65043;48.392;-4.472;2023-02-01T00:13:54;4.50;3.75;2.00
76238;PMS7003;65043;48.392;-4.472;2023-02-01T00:16:24;6.25;5.00;2.00
76238;PMS7003;65043;48.392;-4.472;2023-02-01T00:18:52;5.00;5.00;2.50
76238;PMS7003;65043;48.392;-4.472;2023-02-01T00:21:22;6.75;4.25;3.00
76238;PMS7003;65043;48.392;-4.472;2023-02-01T00:23:47;6.50;4.00;3.00
76238;PMS7003;65043;48.392;-4.472;2023-02-01T00:26:14;5.50;5.00;3.00
76238;PMS7003;65043;48.392;-4.472;2023-02-01T00:28:43;4.75;3.75;3.00
76238;PMS7003;65043;48.392;-4.472;2023-02-01T00:31:08;9.25;4.75;2.00
76238;PMS7003;65043;48.392;-4.472;2023-02-01T00:33:34;6.75;4.00;2.00
76238;PMS7003;65043;48.392;-4.472;2023-02-01T00:36:00;4.50;4.50;2.00
76238;PMS7003;65043;48.392;-4.472;2023-02-01T00:38:28;3.50;3.50;1.75
76238;PMS7003;65043;48.392;-4.472;2023-02-01T00:40:54;2.75;2.75;2.00
76238;PMS7003;65043;48.392;-4.472;2023-02-01T00:43:26;4.50;4.00;3.00
76238;PMS7003;65043;48.392;-4.472;2023-02-01T00:45:51;3.50;3.00;2.00
76238;PMS7003;65043;48.392;-4.472;2023-02-01T00:48:17;6.25;4.25;3.00
76238;PMS7003;65043;48.392;-4.472;2023-02-01T00:50:42;7.75;3.75;1.25
76238;PMS7003;65043;48.392;-4.472;2023-02-01T00:53:08;5.25;3.00;2.00
76238;PMS7003;65043;48.392;-4.472;2023-02-01T00:55:34;6.50;5.25;3.00
76238;PMS7003;65043;48.392;-4.472;2023-02-01T00:58:00;7.50;6.75;2.75
76238;PMS7003;65043;48.392;-4.472;2023-02-01T01:00:26;5.50;3.00;2.00
76238;PMS7003;65043;48.392;-4.472;2023-02-01T01:02:51;8.00;5.00;3.00
76238;PMS7003;65043;48.392;-4.472;2023-02-01T01:05:17;5.25;3.00;2.00
76238;PMS7003;65043;48.392;-4.472;2023-02-01T01:07:42;5.00;4.75;2.50
76238;PMS7003;65043;48.392;-4.472;2023-02-01T01:10:07;4.00;3.00;2.00
76238;PMS7003;65043;48.392;-4.472;2023-02-01T01:12:33;8.00;5.25;2.00
76238;PMS7003;65043;48.392;-4.472;2023-02-01T01:14:58;7.75;4.50;2.00
76238;PMS7003;65043;48.392;-4.472;2023-02-01T01:17:24;7.25;4.00;2.00
76238;PMS7003;65043;48.392;-4.472;2023-02-01T01:19:49;8.25;4.25;2.25
76238;PMS7003;65043;48.392;-4.472;2023-02-01T01:22:14;11.50;6.00;4.00
76238;PMS7003;65043;48.392;-4.472;2023-02-01T01:24:40;6.25;3.50;2.00
76238;PMS7003;65043;48.392;-4.472;2023-02-01T01:27:05;8.00;4.50;2.25
76238;PMS7003;65043;48.392;-4.472;2023-02-01T01:29:30;7.75;4.75;2.00
76238;PMS7003;65043;48.392;-4.472;2023-02-01T01:31:56;5.25;2.25;1.00
76238;PMS7003;65043;48.392;-4.472;2023-02-01T01:34:21;7.00;4.50;2.00
76238;PMS7003;65043;48.392;-4.472;2023-02-01T01:36:46;9.75;3.75;2.00
76238;PMS7003;65043;48.392;-4.472;2023-02-01T01:39:12;6.00;5.00;2.50
76238;PMS7003;65043;48.392;-4.472;2023-02-01T01:41:37;3.75;3.75;3.00
76238;PMS7003;65043;48.392;-4.472;2023-02-01T01:44:04;10.25;4.75;2.75
76238;PMS7003;65043;48.392;-4.472;2023-02-01T01:51:55;6.25;4.00;2.00
76238;PMS7003;65043;48.392;-4.472;2023-02-01T01:54:26;7.00;3.75;2.00
76238;PMS7003;65043;48.392;-4.472;2023-02-01T01:56:59;7.00;4.50;2.00
76238;PMS7003;65043;48.392;-4.472;2023-02-01T01:59:29;5.50;3.50;2.00
76238;PMS7003;65043;48.392;-4.472;2023-02-01T02:01:57;7.00;4.25;2.00
76238;PMS7003;65043;48.392;-4.472;2023-02-01T02:04:22;3.75;3.75;2.00
76238;PMS7003;65043;48.392;-4.472;2023-02-01T02:06:54;4.00;4.00;1.00
76238;PMS7003;65043;48.392;-4.472;2023-02-01T02:09:25;5.25;3.75;2.00
76238;PMS7003;65043;48.392;-4.472;2023-02-01T02:11:50;7.25;3.25;1.00
76238;PMS7003;65043;48.392;-4.472;2023-02-01T02:14:16;6.50;4.25;2.00
76238;PMS7003;65043;48.392;-4.472;2023-02-01T02:16:52;5.50;3.00;2.50
76238;PMS7003;65043;48.392;-4.472;2023-02-01T02:37:23;6.25;4.00;2.00
76238;PMS7003;65043;48.392;-4.472;2023-02-01T02:45:30;7.75;5.00;3.00
76238;PMS7003;65043;48.392;-4.472;2023-02-01T02:48:47;5.00;3.50;1.00
76238;PMS7003;65043;48.392;-4.472;2023-02-01T02:51:25;5.75;2.50;1.75
76238;PMS7003;65043;48.392;-4.472;2023-02-01T02:54:17;5.75;3.50;2.00
76238;PMS7003;65043;48.392;-4.472;2023-02-01T02:57:06;5.75;4.00;2.00
76238;PMS7003;65043;48.392;-4.472;2023-02-01T02:59:54;9.50;4.50;2.00
76238;PMS7003;65043;48.392;-4.472;2023-02-01T03:02:40;7.75;4.25;3.00
76238;PMS7003;65043;48.392;-4.472;2023-02-01T03:05:24;1.50;1.25;1.00
76238;PMS7003;65043;48.392;-4.472;2023-02-01T03:13:10;5.75;3.00;2.00
76238;PMS7003;65043;48.392;-4.472;2023-02-01T03:18:22;5.75;3.00;2.00
76238;PMS7003;65043;48.392;-4.472;2023-02-01T03:20:51;5.00;3.00;2.00
76238;PMS7003;65043;48.392;-4.472;2023-02-01T03:23:21;8.00;5.75;3.00
76238;PMS7003;65043;48.392;-4.472;2023-02-01T03:25:52;6.00;6.00;3.00
76238;PMS7003;65043;48.392;-4.472;2023-02-01T03:28:20;6.00;5.00;3.00
76238;PMS7003;65043;48.392;-4.472;2023-02-01T03:30:48;11.00;7.75;5.75
76238;PMS7003;65043;48.392;-4.472;2023-02-01T03:33:16;12.50;8.50;4.75
76238;PMS7003;65043;48.392;-4.472;2023-02-01T03:38:52;7.75;6.50;3.00
76238;PMS7003;65043;48.392;-4.472;2023-02-01T03:44:22;4.25;2.00;2.00
76238;PMS7003;65043;48.392;-4.472;2023-02-01T03:46:52;7.50;3.25;2.00
76238;PMS7003;65043;48.392;-4.472;2023-02-01T03:51:54;3.50;3.00;1.00
76238;PMS7003;65043;48.392;-4.472;2023-02-01T03:54:22;4.50;4.25;2.00
76238;PMS7003;65043;48.392;-4.472;2023-02-01T03:56:49;6.25;3.50;1.50
76238;PMS7003;65043;48.392;-4.472;2023-02-01T03:59:16;4.75;3.25;1.50
76238;PMS7003;65043;48.392;-4.472;2023-02-01T04:01:42;4.50;3.25;2.00
76238;PMS7003;65043;48.392;-4.472;2023-02-01T04:04:07;5.75;1.50;1.00
76238;PMS7003;65043;48.392;-4.472;2023-02-01T04:06:34;7.50;4.25;2.25
76238;PMS7003;65043;48.392;-4.472;2023-02-01T04:08:59;6.75;5.00;3.00
76238;PMS7003;65043;48.392;-4.472;2023-02-01T04:11:25;4.25;3.50;1.00
76238;PMS7003;65043;48.392;-4.472;2023-02-01T04:13:52;4.00;3.00;2.00
76238;PMS7003;65043;48.392;-4.472;2023-02-01T04:16:18;5.25;4.00;2.00
76238;PMS7003;65043;48.392;-4.472;2023-02-01T04:18:43;8.50;3.75;2.25
76238;PMS7003;65043;48.392;-4.472;2023-02-01T04:21:08;4.00;3.75;2.25
76238;PMS7003;65043;48.392;-4.472;2023-02-01T04:23:34;12.00;3.00;2.50
76238;PMS7003;65043;48.392;-4.472;2023-02-01T04:26:01;5.50;4.75;2.00
76238;PMS7003;65043;48.392;-4.472;2023-02-01T04:28:29;5.00;3.00;2.00
76238;PMS7003;65043;48.392;-4.472;2023-02-01T04:30:55;4.00;3.00;1.00
76238;PMS7003;65043;48.392;-4.472;2023-02-01T04:33:21;8.00;5.00;2.25
76238;PMS7003;65043;48.392;-4.472;2023-02-01T04:35:46;2.00;2.00;2.00
76238;PMS7003;65043;48.392;-4.472;2023-02-01T04:38:12;9.00;3.50;2.00
76238;PMS7003;65043;48.392;-4.472;2023-02-01T04:40:38;7.00;4.00;2.00
76238;PMS7003;65043;48.392;-4.472;2023-02-01T04:43:03;5.50;3.25;1.00
76238;PMS7003;65043;48.392;-4.472;2023-02-01T04:45:29;4.00;4.00;2.00
76238;PMS7003;65043;48.392;-4.472;2023-02-01T04:47:55;4.75;3.00;2.00
76238;PMS7003;65043;48.392;-4.472;2023-02-01T04:50:20;3.25;2.50;0.75
76238;PMS7003;65043;48.392;-4.472;2023-02-01T04:52:46;7.00;3.75;2.00
76238;PMS7003;65043;48.392;-4.472;2023-02-01T04:55:11;4.50;3.75;2.00
76238;PMS7003;65043;48.392;-4.472;2023-02-01T04:57:38;2.75;2.75;1.00
76238;PMS7003;65043;48.392;-4.472;2023-02-01T05:00:05;3.25;2.25;1.75
76238;PMS7003;65043;48.392;-4.472;2023-02-01T05:02:32;5.00;2.75;1.25
76238;PMS7003;65043;48.392;-4.472;2023-02-01T05:04:57;4.25;3.00;2.00
76238;PMS7003;65043;48.392;-4.472;2023-02-01T05:07:23;8.75;4.75;2.00
76238;PMS7003;65043;48.392;-4.472;2023-02-01T05:09:49;5.00;4.50;2.00
76238;PMS7003;65043;48.392;-4.472;2023-02-01T05:12:14;3.25;2.50;2.00
76238;PMS7003;65043;48.392;-4.472;2023-02-01T05:14:58;9.50;4.00;2.00
76238;PMS7003;65043;48.392;-4.472;2023-02-01T05:17:23;4.00;3.75;2.00
76238;PMS7003;65043;48.392;-4.472;2023-02-01T05:19:49;7.75;3.25;2.00
76238;PMS7003;65043;48.392;-4.472;2023-02-01T05:22:14;6.50;4.00;2.00
76238;PMS7003;65043;48.392;-4.472;2023-02-01T05:24:40;7.00;3.50;1.75
76238;PMS7003;65043;48.392;-4.472;2023-02-01T05:27:05;5.75;4.50;1.75
76238;PMS7003;65043;48.392;-4.472;2023-02-01T05:29:31;2.50;2.50;1.75
76238;PMS7003;65043;48.392;-4.472;2023-02-01T05:31:56;5.50;4.25;2.00
76238;PMS7003;65043;48.392;-4.472;2023-02-01T05:34:21;3.75;2.25;1.50
76238;PMS7003;65043;48.392;-4.472;2023-02-01T05:36:47;6.50;4.00;2.00
76238;PMS7003;65043;48.392;-4.472;2023-02-01T05:39:12;5.75;3.75;1.50
76238;PMS7003;65043;48.392;-4.472;2023-02-01T05:41:37;9.00;4.00;3.00
76238;PMS7003;65043;48.392;-4.472;2023-02-01T05:44:03;6.25;3.25;2.00
76238;PMS7003;65043;48.392;-4.472;2023-02-01T05:46:28;5.00;4.00;2.00
76238;PMS7003;65043;48.392;-4.472;2023-02-01T05:48:54;6.50;5.00;2.00
76238;PMS7003;65043;48.392;-4.472;2023-02-01T05:51:19;9.25;5.25;2.75
76238;PMS7003;65043;48.392;-4.472;2023-02-01T05:53:45;9.75;3.25;2.00
76238;PMS7003;65043;48.392;-4.472;2023-02-01T05:56:10;9.25;6.50;3.00
76238;PMS7003;65043;48.392;-4.472;2023-02-01T05:58:35;20.00;13.75;7.50
76238;PMS7003;65043;48.392;-4.472;2023-02-01T06:01:01;14.25;10.50;6.75
76238;PMS7003;65043;48.392;-4.472;2023-02-01T06:03:28;13.00;12.00;7.00
76238;PMS7003;65043;48.392;-4.472;2023-02-01T06:05:54;7.00;6.00;4.00
76238;PMS7003;65043;48.392;-4.472;2023-02-01T06:08:19;7.50;5.00;3.00
76238;PMS7003;65043;48.392;-4.472;2023-02-01T06:10:45;6.75;1.25;0.00
76238;PMS7003;65043;48.392;-4.472;2023-02-01T06:13:10;5.75;5.00;3.00
76238;PMS7003;65043;48.392;-4.472;2023-02-01T06:15:36;5.00;4.50;2.00
76238;PMS7003;65043;48.392;-4.472;2023-02-01T06:18:02;6.50;4.75;3.00
76238;PMS7003;65043;48.392;-4.472;2023-02-01T06:20:28;7.25;6.00;3.00
76238;PMS7003;65043;48.392;-4.472;2023-02-01T06:22:53;4.50;3.00;2.00
76238;PMS7003;65043;48.392;-4.472;2023-02-01T06:25:19;4.50;4.00;2.25
76238;PMS7003;65043;48.392;-4.472;2023-02-01T06:27:45;9.50;6.00;3.00
76238;PMS7003;65043;48.392;-4.472;2023-02-01T06:30:11;8.25;5.00;3.00
76238;PMS7003;65043;48.392;-4.472;2023-02-01T06:32:40;10.00;5.25;3.00
76238;PMS7003;65043;48.392;-4.472;2023-02-01T06:35:09;9.00;4.25;3.00
76238;PMS7003;65043;48.392;-4.472;2023-02-01T06:37:41;5.00;3.00;2.75
76238;PMS7003;65043;48.392;-4.472;2023-02-01T06:40:06;9.75;4.75;4.00
76238;PMS7003;65043;48.392;-4.472;2023-02-01T06:42:33;3.25;3.25;2.00
76238;PMS7003;65043;48.392;-4.472;2023-02-01T06:44:59;3.00;3.00;2.25
76238;PMS7003;65043;48.392;-4.472;2023-02-01T06:47:24;7.50;3.75;2.00
76238;PMS7003;65043;48.392;-4.472;2023-02-01T06:49:49;5.50;4.50;3.00
76238;PMS7003;65043;48.392;-4.472;2023-02-01T06:52:15;7.00;5.00;3.00
76238;PMS7003;65043;48.392;-4.472;2023-02-01T06:54:40;5.00;5.00;3.25
76238;PMS7003;65043;48.392;-4.472;2023-02-01T06:57:05;5.00;5.00;2.50
76238;PMS7003;65043;48.392;-4.472;2023-02-01T06:59:31;5.25;4.00;3.00
76238;PMS7003;65043;48.392;-4.472;2023-02-01T07:01:56;5.50;5.00;3.00
76238;PMS7003;65043;48.392;-4.472;2023-02-01T07:04:21;7.25;5.25;3.00
76238;PMS7003;65043;48.392;-4.472;2023-02-01T07:06:47;7.75;6.00;3.00
76238;PMS7003;65043;48.392;-4.472;2023-02-01T07:09:12;6.00;4.00;3.00
76238;PMS7003;65043;48.392;-4.472;2023-02-01T07:11:38;6.50;4.25;3.25
76238;PMS7003;65043;48.392;-4.472;2023-02-01T07:14:08;6.50;5.00;3.00
76238;PMS7003;65043;48.392;-4.472;2023-02-01T07:16:34;9.50;6.50;3.50
76238;PMS7003;65043;48.392;-4.472;2023-02-01T07:18:59;6.25;4.25;3.00
76238;PMS7003;65043;48.392;-4.472;2023-02-01T07:21:25;9.75;6.00;3.00
76238;PMS7003;65043;48.392;-4.472;2023-02-01T07:23:52;6.75;4.25;2.75
76238;PMS7003;65043;48.392;-4.472;2023-02-01T07:26:18;9.25;5.00;3.00
76238;PMS7003;65043;48.392;-4.472;2023-02-01T07:28:43;6.25;5.00;3.00
76238;PMS7003;65043;48.392;-4.472;2023-02-01T07:31:10;13.00;4.50;2.00
76238;PMS7003;65043;48.392;-4.472;2023-02-01T07:33:38;11.00;5.25;3.00
76238;PMS7003;65043;48.392;-4.472;2023-02-01T07:36:05;9.25;6.75;3.75
76238;PMS7003;65043;48.392;-4.472;2023-02-01T07:38:31;6.00;5.00;4.00
76238;PMS7003;65043;48.392;-4.472;2023-02-01T07:40:58;9.25;6.75;4.75
76238;PMS7003;65043;48.392;-4.472;2023-02-01T07:43:27;9.50;6.25;4.50
76238;PMS7003;65043;48.392;-4.472;2023-02-01T07:45:54;11.25;6.25;3.00
76238;PMS7003;65043;48.392;-4.472;2023-02-01T07:48:20;5.25;4.25;4.00
76238;PMS7003;65043;48.392;-4.472;2023-02-01T07:50:46;7.25;4.75;4.00
76238;PMS7003;65043;48.392;-4.472;2023-02-01T07:53:12;7.75;5.00;2.50
76238;PMS7003;65043;48.392;-4.472;2023-02-01T07:55:38;8.00;3.75;3.00
76238;PMS7003;65043;48.392;-4.472;2023-02-01T07:58:03;7.00;4.25;2.00
76238;PMS7003;65043;48.392;-4.472;2023-02-01T08:00:29;8.50;5.00;3.00
76238;PMS7003;65043;48.392;-4.472;2023-02-01T08:03:13;7.50;6.00;3.75
76238;PMS7003;65043;48.392;-4.472;2023-02-01T08:05:38;8.25;6.00;3.00
76238;PMS7003;65043;48.392;-4.472;2023-02-01T08:08:04;5.00;4.75;3.00
76238;PMS7003;65043;48.392;-4.472;2023-02-01T08:10:29;12.00;5.25;2.00
76238;PMS7003;65043;48.392;-4.472;2023-02-01T08:12:57;5.50;4.25;3.00
76238;PMS7003;65043;48.392;-4.472;2023-02-01T08:15:23;6.00;4.50;3.50
76238;PMS7003;65043;48.392;-4.472;2023-02-01T08:17:49;7.00;4.00;2.75
76238;PMS7003;65043;48.392;-4.472;2023-02-01T08:20:16;5.75;4.75;4.00
76238;PMS7003;65043;48.392;-4.472;2023-02-01T08:22:42;6.25;5.50;3.00
76238;PMS7003;65043;48.392;-4.472;2023-02-01T08:25:08;6.75;3.75;2.75
76238;PMS7003;65043;48.392;-4.472;2023-02-01T08:27:34;8.00;5.00;3.00
76238;PMS7003;65043;48.392;-4.472;2023-02-01T08:30:00;8.50;5.75;3.00
76238;PMS7003;65043;48.392;-4.472;2023-02-01T08:32:26;8.50;7.00;4.00
76238;PMS7003;65043;48.392;-4.472;2023-02-01T08:34:52;10.50;8.75;6.00
76238;PMS7003;65043;48.392;-4.472;2023-02-01T08:37:18;15.00;10.50;6.75
76238;PMS7003;65043;48.392;-4.472;2023-02-01T08:39:43;12.50;9.50;6.50
76238;PMS7003;65043;48.392;-4.472;2023-02-01T08:42:10;12.75;7.25;5.25
76238;PMS7003;65043;48.392;-4.472;2023-02-01T08:44:55;13.25;8.25;6.00
76238;PMS7003;65043;48.392;-4.472;2023-02-01T08:47:20;6.25;5.50;4.00
76238;PMS7003;65043;48.392;-4.472;2023-02-01T08:49:46;7.75;5.75;3.00
76238;PMS7003;65043;48.392;-4.472;2023-02-01T08:52:11;11.00;6.75;4.75
76238;PMS7003;65043;48.392;-4.472;2023-02-01T08:54:37;7.00;6.25;5.00
76238;PMS7003;65043;48.392;-4.472;2023-02-01T08:57:04;12.75;8.00;4.00
76238;PMS7003;65043;48.392;-4.472;2023-02-01T08:59:30;12.00;9.25;5.75
76238;PMS7003;65043;48.392;-4.472;2023-02-01T09:01:55;16.75;9.25;6.00
76238;PMS7003;65043;48.392;-4.472;2023-02-01T09:04:21;9.50;8.00;5.25
76238;PMS7003;65043;48.392;-4.472;2023-02-01T09:06:46;12.25;8.75;5.00
76238;PMS7003;65043;48.392;-4.472;2023-02-01T09:09:12;17.75;9.50;5.00
76238;PMS7003;65043;48.392;-4.472;2023-02-01T09:11:37;12.50;7.00;4.25
76238;PMS7003;65043;48.392;-4.472;2023-02-01T09:14:02;11.75;7.00;4.25
76238;PMS7003;65043;48.392;-4.472;2023-02-01T09:16:28;8.25;7.00;4.00
76238;PMS7003;65043;48.392;-4.472;2023-02-01T09:18:54;10.25;8.00;4.25
76238;PMS7003;65043;48.392;-4.472;2023-02-01T09:21:19;7.50;5.25;3.75
76238;PMS7003;65043;48.392;-4.472;2023-02-01T09:23:45;7.25;5.00;3.00
76238;PMS7003;65043;48.392;-4.472;2023-02-01T09:26:13;6.00;5.75;4.00
76238;PMS7003;65043;48.392;-4.472;2023-02-01T09:28:39;6.00;4.75;3.00
76238;PMS7003;65043;48.392;-4.472;2023-02-01T09:31:04;9.50;5.25;3.00
76238;PMS7003;65043;48.392;-4.472;2023-02-01T09:33:30;7.00;5.50;2.75
76238;PMS7003;65043;48.392;-4.472;2023-02-01T09:35:58;6.00;5.50;3.00
76238;PMS7003;65043;48.392;-4.472;2023-02-01T09:38:25;7.00;5.75;3.50
76238;PMS7003;65043;48.392;-4.472;2023-02-01T09:40:52;9.75;9.50;7.00
76238;PMS7003;65043;48.392;-4.472;2023-02-01T09:43:29;13.75;8.50;5.75
76238;PMS7003;65043;48.392;-4.472;2023-02-01T09:46:23;8.00;8.00;4.00
76238;PMS7003;65043;48.392;-4.472;2023-02-01T09:48:53;9.00;7.00;4.00
76238;PMS7003;65043;48.392;-4.472;2023-02-01T09:51:25;9.25;6.00;4.00
76238;PMS7003;65043;48.392;-4.472;2023-02-01T09:54:07;8.50;6.00;4.00
76238;PMS7003;65043;48.392;-4.472;2023-02-01T09:56:47;8.50;6.00;4.00
76238;PMS7003;65043;48.392;-4.472;2023-02-01T10:01:49;8.00;6.50;4.00
76238;PMS7003;65043;48.392;-4.472;2023-02-01T10:04:15;7.00;5.25;3.50
76238;PMS7003;65043;48.392;-4.472;2023-02-01T10:15:28;7.25;5.50;4.00
76238;PMS7003;65043;48.392;-4.472;2023-02-01T10:21:02;6.75;6.75;3.75
76238;PMS7003;65043;48.392;-4.472;2023-02-01T10:26:19;9.75;7.25;5.00
76238;PMS7003;65043;48.392;-4.472;2023-02-01T10:28:50;7.75;5.50;3.00
76238;PMS7003;65043;48.392;-4.472;2023-02-01T10:31:25;3.25;3.25;3.00
76238;PMS7003;65043;48.392;-4.472;2023-02-01T10:33:56;6.75;6.00;3.00
76238;PMS7003;65043;48.392;-4.472;2023-02-01T10:39:05;6.00;4.00;2.00
76238;PMS7003;65043;48.392;-4.472;2023-02-01T10:41:35;3.25;3.25;1.50
76238;PMS7003;65043;48.392;-4.472;2023-02-01T10:44:03;3.00;2.75;1.25
76238;PMS7003;65043;48.392;-4.472;2023-02-01T10:46:35;6.00;4.00;3.00
76238;PMS7003;65043;48.392;-4.472;2023-02-01T10:49:02;3.25;2.00;1.00
76238;PMS7003;65043;48.392;-4.472;2023-02-01T10:51:33;5.50;4.00;2.75
76238;PMS7003;65043;48.392;-4.472;2023-02-01T10:54:22;4.50;4.00;2.00
76238;PMS7003;65043;48.392;-4.472;2023-02-01T10:56:57;5.75;4.50;1.25
76238;PMS7003;65043;48.392;-4.472;2023-02-01T10:59:27;3.25;3.00;2.50
76238;PMS7003;65043;48.392;-4.472;2023-02-01T11:01:58;6.00;4.75;2.00
76238;PMS7003;65043;48.392;-4.472;2023-02-01T11:04:26;5.00;3.00;1.00
76238;PMS7003;65043;48.392;-4.472;2023-02-01T11:07:05;7.00;4.00;2.00
76238;PMS7003;65043;48.392;-4.472;2023-02-01T11:09:48;3.75;3.75;2.00
76238;PMS7003;65043;48.392;-4.472;2023-02-01T11:12:35;7.50;5.75;2.50
76238;PMS7003;65043;48.392;-4.472;2023-02-01T11:17:45;4.25;2.25;1.00
76238;PMS7003;65043;48.392;-4.472;2023-02-01T11:20:16;5.00;5.00;2.00
76238;PMS7003;65043;48.392;-4.472;2023-02-01T11:23:00;6.75;3.75;2.00
76238;PMS7003;65043;48.392;-4.472;2023-02-01T11:25:26;8.00;6.75;3.00
76238;PMS7003;65043;48.392;-4.472;2023-02-01T11:27:53;3.00;2.75;2.00
76238;PMS7003;65043;48.392;-4.472;2023-02-01T11:30:29;6.00;3.50;2.00
76238;PMS7003;65043;48.392;-4.472;2023-02-01T11:32:59;5.50;3.25;3.00
76238;PMS7003;65043;48.392;-4.472;2023-02-01T11:35:26;5.75;5.25;3.00
76238;PMS7003;65043;48.392;-4.472;2023-02-01T11:37:55;11.00;6.00;4.00
76238;PMS7003;65043;48.392;-4.472;2023-02-01T11:40:45;6.25;5.25;4.00
76238;PMS7003;65043;48.392;-4.472;2023-02-01T11:43:13;12.75;6.00;4.00
76238;PMS7003;65043;48.392;-4.472;2023-02-01T11:45:53;6.50;5.00;3.00
76238;PMS7003;65043;48.392;-4.472;2023-02-01T11:48:29;6.50;6.25;4.00
76238;PMS7003;65043;48.392;-4.472;2023-02-01T11:59:27;7.00;5.00;3.75
76238;PMS7003;65043;48.392;-4.472;2023-02-01T12:02:37;5.00;4.00;2.50
76238;PMS7003;65043;48.392;-4.472;2023-02-01T12:05:22;6.50;3.00;2.00
76238;PMS7003;65043;48.392;-4.472;2023-02-01T12:11:04;5.50;4.00;2.00
76238;PMS7003;65043;48.392;-4.472;2023-02-01T12:13:36;4.75;2.50;2.00
76238;PMS7003;65043;48.392;-4.472;2023-02-01T12:19:29;3.75;3.50;2.00
76238;PMS7003;65043;48.392;-4.472;2023-02-01T12:21:45;6.00;4.50;3.00
76238;PMS7003;65043;48.392;-4.472;2023-02-01T12:27:33;9.00;5.75;3.00
76238;PMS7003;65043;48.392;-4.472;2023-02-01T12:39:58;4.00;3.00;1.00
76238;PMS7003;65043;48.392;-4.472;2023-02-01T12:42:26;2.00;2.00;1.00
76238;PMS7003;65043;48.392;-4.472;2023-02-01T12:45:22;3.75;2.25;1.00
76238;PMS7003;65043;48.392;-4.472;2023-02-01T12:47:56;5.00;2.75;1.75
76238;PMS7003;65043;48.392;-4.472;2023-02-01T12:50:40;3.00;3.00;2.25
76238;PMS7003;65043;48.392;-4.472;2023-02-01T12:58:55;6.00;3.00;2.00
76238;PMS7003;65043;48.392;-4.472;2023-02-01T13:07:22;4.50;3.00;1.00
76238;PMS7003;65043;48.392;-4.472;2023-02-01T13:09:57;5.00;2.00;1.50
76238;PMS7003;65043;48.392;-4.472;2023-02-01T13:12:34;5.50;3.00;1.00
76238;PMS7003;65043;48.392;-4.472;2023-02-01T13:15:05;6.00;3.75;2.00
76238;PMS7003;65043;48.392;-4.472;2023-02-01T13:17:35;9.00;3.50;2.00
76238;PMS7003;65043;48.392;-4.472;2023-02-01T13:20:06;5.00;3.75;2.00
76238;PMS7003;65043;48.392;-4.472;2023-02-01T13:22:45;6.00;3.00;2.00
76238;PMS7003;65043;48.392;-4.472;2023-02-01T13:25:17;5.25;4.50;2.00
76238;PMS7003;65043;48.392;-4.472;2023-02-01T13:27:52;2.75;2.75;2.00
76238;PMS7003;65043;48.392;-4.472;2023-02-01T13:30:24;3.75;1.75;1.25
76238;PMS7003;65043;48.392;-4.472;2023-02-01T13:40:53;4.75;3.00;1.25
76238;PMS7003;65043;48.392;-4.472;2023-02-01T13:43:38;4.75;3.00;2.00
76238;PMS7003;65043;48.392;-4.472;2023-02-01T13:46:07;4.50;3.25;1.25
76238;PMS7003;65043;48.392;-4.472;2023-02-01T13:51:29;5.25;2.00;0.75
76238;PMS7003;65043;48.392;-4.472;2023-02-01T13:54:02;6.00;4.50;1.75
76238;PMS7003;65043;48.392;-4.472;2023-02-01T13:56:32;6.25;4.00;2.00
76238;PMS7003;65043;48.392;-4.472;2023-02-01T13:59:51;6.50;2.50;1.00
76238;PMS7003;65043;48.392;-4.472;2023-02-01T14:26:19;5.50;3.50;2.00
76238;PMS7003;65043;48.392;-4.472;2023-02-01T14:29:01;4.25;2.75;1.50
76238;PMS7003;65043;48.392;-4.472;2023-02-01T14:34:31;3.00;3.00;1.75
76238;PMS7003;65043;48.392;-4.472;2023-02-01T14:37:08;3.00;2.00;1.25
76238;PMS7003;65043;48.392;-4.472;2023-02-01T14:47:44;4.75;2.25;1.00
76238;PMS7003;65043;48.392;-4.472;2023-02-01T14:55:34;5.25;3.25;2.00
76238;PMS7003;65043;48.392;-4.472;2023-02-01T15:01:04;2.50;2.00;1.00
76238;PMS7003;65043;48.392;-4.472;2023-02-01T15:06:25;3.00;2.00;1.00
76238;PMS7003;65043;48.392;-4.472;2023-02-01T15:08:58;7.50;2.00;1.00
76238;PMS7003;65043;48.392;-4.472;2023-02-01T15:11:27;3.50;3.00;1.00
76238;PMS7003;65043;48.392;-4.472;2023-02-01T15:13:52;5.00;3.75;1.00
76238;PMS7003;65043;48.392;-4.472;2023-02-01T15:16:21;5.00;3.50;2.00
76238;PMS7003;65043;48.392;-4.472;2023-02-01T15:18:48;5.00;3.75;1.00
76238;PMS7003;65043;48.392;-4.472;2023-02-01T15:21:17;9.25;4.75;2.00
76238;PMS7003;65043;48.392;-4.472;2023-02-01T15:23:47;3.50;1.75;1.00
76238;PMS7003;65043;48.392;-4.472;2023-02-01T15:26:26;3.25;3.00;2.00
76238;PMS7003;65043;48.392;-4.472;2023-02-01T15:28:53;3.25;3.25;2.00
76238;PMS7003;65043;48.392;-4.472;2023-02-01T15:31:30;6.50;3.50;2.00
76238;PMS7003;65043;48.392;-4.472;2023-02-01T15:33:58;4.75;3.25;2.00
76238;PMS7003;65043;48.392;-4.472;2023-02-01T15:36:23;5.75;5.00;2.50
76238;PMS7003;65043;48.392;-4.472;2023-02-01T15:41:56;4.50;3.00;2.00
76238;PMS7003;65043;48.392;-4.472;2023-02-01T15:47:12;6.00;3.75;2.00
76238;PMS7003;65043;48.392;-4.472;2023-02-01T15:49:41;4.50;4.25;2.25
76238;PMS7003;65043;48.392;-4.472;2023-02-01T15:52:16;4.00;4.00;1.50
76238;PMS7003;65043;48.392;-4.472;2023-02-01T15:54:46;4.50;3.50;2.00
76238;PMS7003;65043;48.392;-4.472;2023-02-01T15:57:18;6.00;3.00;2.00
76238;PMS7003;65043;48.392;-4.472;2023-02-01T15:59:47;4.25;4.25;3.00
76238;PMS7003;65043;48.392;-4.472;2023-02-01T16:02:25;7.75;4.75;3.00
76238;PMS7003;65043;48.392;-4.472;2023-02-01T16:04:54;5.25;5.00;3.00
76238;PMS7003;65043;48.392;-4.472;2023-02-01T16:07:29;6.75;4.50;3.00
76238;PMS7003;65043;48.392;-4.472;2023-02-01T16:09:57;6.75;5.25;4.00
76238;PMS7003;65043;48.392;-4.472;2023-02-01T16:14:49;7.50;5.50;4.25
76238;PMS7003;65043;48.392;-4.472;2023-02-01T16:17:15;5.00;2.00;2.00
76238;PMS7003;65043;48.392;-4.472;2023-02-01T16:19:40;8.50;5.00;4.00
76238;PMS7003;65043;48.392;-4.472;2023-02-01T16:22:05;6.50;5.75;4.00
76238;PMS7003;65043;48.392;-4.472;2023-02-01T16:24:31;6.00;4.25;2.25
76238;PMS7003;65043;48.392;-4.472;2023-02-01T16:26:58;7.25;4.00;2.00
76238;PMS7003;65043;48.392;-4.472;2023-02-01T16:29:23;6.25;5.00;3.75
76238;PMS7003;65043;48.392;-4.472;2023-02-01T16:31:49;2.00;2.00;1.50
76238;PMS7003;65043;48.392;-4.472;2023-02-01T16:34:15;5.75;4.75;3.00
76238;PMS7003;65043;48.392;-4.472;2023-02-01T16:36:42;4.50;4.25;2.50
76238;PMS7003;65043;48.392;-4.472;2023-02-01T16:39:08;4.50;4.00;2.50
76238;PMS7003;65043;48.392;-4.472;2023-02-01T16:41:38;7.25;5.25;3.00
76238;PMS7003;65043;48.392;-4.472;2023-02-01T16:44:04;3.00;3.00;2.50
76238;PMS7003;65043;48.392;-4.472;2023-02-01T16:46:32;6.25;4.00;2.00
76238;PMS7003;65043;48.392;-4.472;2023-02-01T16:49:00;6.25;4.00;3.00
76238;PMS7003;65043;48.392;-4.472;2023-02-01T16:51:28;8.00;6.00;3.50
76238;PMS7003;65043;48.392;-4.472;2023-02-01T16:53:57;12.25;6.75;3.75
76238;PMS7003;65043;48.392;-4.472;2023-02-01T16:56:23;6.50;4.25;3.00
76238;PMS7003;65043;48.392;-4.472;2023-02-01T16:58:54;6.75;6.00;3.50
76238;PMS7003;65043;48.392;-4.472;2023-02-01T17:01:20;4.25;3.50;2.00
76238;PMS7003;65043;48.392;-4.472;2023-02-01T17:03:45;5.50;3.00;2.00
76238;PMS7003;65043;48.392;-4.472;2023-02-01T17:06:12;4.75;4.75;3.00
76238;PMS7003;65043;48.392;-4.472;2023-02-01T17:08:41;4.75;4.25;2.50
76238;PMS7003;65043;48.392;-4.472;2023-02-01T17:11:09;6.50;3.75;2.50
76238;PMS7003;65043;48.392;-4.472;2023-02-01T17:13:36;8.00;5.00;3.00